Trenton, AL (35774)

11:57 AM CST on February 23, 2017 (GMT -0600)
Wininger | | Change Station

Elev 1572 ft 34.74 °N, 86.16 °W | Updated 3 seconds ago

Overcast
Overcast
65.8 °F
Feels Like 65.8 °F
N
9.2
Wind Variable Wind from South
Gusts 9.8 mph

Today
High -- | Low -- °F
--% Chance of Precip.
Yesterday
High -- | Low -- °F
Precip. -- in
Pressure 29.87 in
Visibility 10.0 miles
Clouds Mostly Cloudy 3200 ft
Dew Point 35 °F
Humidity 32%
Rainfall 0.00 in
Snow Depth Not available.
6:21 AM 5:35 PM
Waning Crescent, 9% visible
METAR K4A6 231735Z AUTO 22007KT 10SM BKN032 21/14 A2987 RMK AO2
Pressure 29.87 in
Visibility 10.0 miles
Clouds Mostly Cloudy 3200 ft
Dew Point 35 °F
Humidity 32%
Rainfall 0.00 in
Snow Depth Not available.
6:21 AM 5:35 PM
Waning Crescent, 9% visible
METAR K4A6 231735Z AUTO 22007KT 10SM BKN032 21/14 A2987 RMK AO2

Get Your Daily Forecast Email!

Thanks for signing up!

Be on the lookout for a verification email in your inbox.

You'll start receiving the daily forecast at 8 AM.

×

10-Day Weather Forecast

Almanac

Astronomy

Feb. 23, 2017 Rise Set
Actual Time
Civil Twilight
Nautical Twilight
Astronomical Twilight
Moon
Length of Visible Light
Length of Day
Tomorrow will be .
, % of the Moon is Illuminated

Today's Extremes

State Highs State Lows

Community

WunderPhotos

Upload Photos

1,962,540 photos uploaded!

WunderBlog® & News

Nearby

Air Quality

  Air Quality AQ Index Pollutant
Not available.

Snow Depth

Station Depth Elevation

Earthquake Activity

City Distance Mag. Time & Date
Minimum magnitude displayed is 2.5.

Coastal Water Temperatures

Place Temperature

Stations

Nearby Weather Stations

Station Location Temp. Windchill Dew Point Humidity Wind Precip. Elev Updated Type
                   

Watches & Warnings

There are currently no watches in effect.